Terminal Aerodrome Forecast
Issued by NWS Charleston, WV

Home | Current Version | Previous Version | Text Only | Print | Product List | Glossary On
Versions: 1 2 3 4 5 6 7 8 9 10 11 12 13 14 15 16 17 18 19 20 21 22 23 24 25 26 27 28
000
FTUS41 KRLX 012300
TAFHTS
TAF
KHTS 012340Z 0200/0224 02005KT P6SM VCSH SCT050 BKN250
     FM020300 00000KT 6SM BR BKN120
     FM020500 00000KT 4SM BR BKN250
     FM020600 00000KT 2SM BR BKN250
     FM020800 00000KT 2SM BR BKN035
     FM021200 00000KT 3SM BR BKN010
     FM021400 00000KT P6SM BKN250
     FM021700 35004KT P6SM BKN250
     FM022300 02004KT P6SM BKN250=

USA.gov is the U.S. government's official web portal to all federal, state and local government web resources and services.